Home

Weather

KSLC Current Conditions

KSLC 300654Z 00000KT 10SM CLR 19/07 A3005 RMK AO2 SLP124 T01890067 402940122

KSLC Aviation Forecast

TAF KSLC 300528Z 3006/3112 15003KT P6SM SKC FM300700 15007KT P6SM SKC FM301900 33008KT P6SM FEW090 FM310400 15007KT P6SM SCT090


66° F
Clear
Clear

Clear
Tuesday
Clear
High 88°/Low 62°
0%
Clear
Wednesday
Clear
High 91°/Low 64°
0%
Partly Cloudy
Thursday
Partly Cloudy
High 86°/Low 56°
0%
Clear
Friday
Clear
High 78°/Low 53°
10%